createdAt,value
2022-12-15T00:00:01.537Z,24.36
2022-12-15T00:00:33.025Z,24.41
2022-12-15T00:01:04.523Z,24.40
2022-12-15T00:01:36.051Z,24.49
2022-12-15T00:02:07.501Z,24.37
2022-12-15T00:02:38.979Z,24.43
2022-12-15T00:03:10.681Z,24.32
2022-12-15T00:03:42.626Z,24.45
2022-12-15T00:04:14.249Z,24.33
2022-12-15T00:04:45.675Z,24.37
2022-12-15T00:05:17.077Z,24.34
2022-12-15T00:05:50.155Z,24.41
2022-12-15T00:06:21.892Z,24.49
2022-12-15T00:06:53.407Z,24.34
2022-12-15T00:07:24.810Z,24.36
2022-12-15T00:07:56.213Z,24.35
2022-12-15T00:08:27.672Z,24.38
2022-12-15T00:08:59.049Z,24.50
2022-12-15T00:09:31.085Z,24.48
2022-12-15T00:10:02.618Z,24.45
2022-12-15T00:10:34.018Z,24.50
2022-12-15T00:11:05.488Z,24.41
2022-12-15T00:11:36.924Z,24.43
2022-12-15T00:12:08.314Z,24.54
2022-12-15T00:12:39.707Z,24.51
2022-12-15T00:13:11.150Z,24.51
2022-12-15T00:13:42.629Z,24.39
2022-12-15T00:14:14.107Z,24.26
2022-12-15T00:14:45.670Z,24.25
2022-12-15T00:15:17.186Z,24.49
2022-12-15T00:15:48.709Z,24.34
2022-12-15T00:16:20.291Z,24.34
2022-12-15T00:16:51.804Z,24.42
2022-12-15T00:17:23.280Z,24.44
2022-12-15T00:17:56.230Z,24.42
2022-12-15T00:18:27.658Z,24.44
2022-12-15T00:18:59.090Z,24.47
2022-12-15T00:19:30.524Z,24.45
2022-12-15T00:20:02.057Z,24.45
2022-12-15T00:20:33.560Z,24.34
2022-12-15T00:21:04.974Z,24.45
2022-12-15T00:21:36.369Z,24.29
2022-12-15T00:22:07.816Z,24.23
2022-12-15T00:22:39.294Z,24.51
2022-12-15T00:23:10.811Z,24.50
2022-12-15T00:23:42.221Z,24.39
2022-12-15T00:24:13.651Z,24.42
2022-12-15T00:24:45.102Z,24.41
2022-12-15T00:25:23.381Z,24.44
2022-12-15T00:25:54.839Z,24.34
2022-12-15T00:26:26.266Z,24.22
2022-12-15T00:26:57.696Z,24.36
2022-12-15T00:27:29.175Z,24.42
2022-12-15T00:28:00.599Z,24.52
2022-12-15T00:28:31.994Z,24.48
2022-12-15T00:29:03.409Z,24.28
2022-12-15T00:29:34.901Z,24.29
2022-12-15T00:30:09.072Z,24.45
2022-12-15T00:30:40.588Z,24.31
2022-12-15T00:31:12.142Z,24.35
2022-12-15T00:31:43.673Z,24.17
2022-12-15T00:32:15.176Z,24.40
2022-12-15T00:32:46.590Z,24.39
2022-12-15T00:33:18.159Z,24.35
2022-12-15T00:33:49.750Z,24.45
2022-12-15T00:34:21.249Z,24.36
2022-12-15T00:34:52.693Z,24.36
2022-12-15T00:35:24.153Z,24.43
2022-12-15T00:35:55.611Z,24.38
2022-12-15T00:36:27.053Z,24.43
2022-12-15T00:36:58.506Z,24.38
2022-12-15T00:37:29.928Z,24.48
2022-12-15T00:38:01.420Z,24.36
2022-12-15T00:38:32.922Z,24.41
2022-12-15T00:39:04.382Z,24.35
2022-12-15T00:39:35.812Z,24.36
2022-12-15T00:40:07.248Z,24.40
2022-12-15T00:40:38.704Z,24.26
2022-12-15T00:41:10.207Z,24.48
2022-12-15T00:41:41.621Z,24.44
2022-12-15T00:42:13.071Z,24.49
2022-12-15T00:42:44.497Z,24.40
2022-12-15T00:43:20.881Z,24.46
2022-12-15T00:43:52.295Z,24.37
2022-12-15T00:44:23.753Z,24.41
2022-12-15T00:44:55.206Z,24.23
2022-12-15T00:45:26.640Z,24.24
2022-12-15T00:45:58.097Z,24.34
2022-12-15T00:46:29.685Z,24.37
2022-12-15T00:47:01.472Z,24.36
2022-12-15T00:47:32.987Z,24.17
2022-12-15T00:48:04.424Z,24.29
2022-12-15T00:48:35.971Z,24.37
2022-12-15T00:49:07.437Z,24.34
2022-12-15T00:49:38.867Z,24.29
2022-12-15T00:50:10.289Z,24.43
2022-12-15T00:50:41.727Z,24.34
2022-12-15T00:51:13.183Z,24.45
2022-12-15T00:51:44.670Z,24.28
2022-12-15T00:52:16.156Z,24.45
2022-12-15T00:52:47.554Z,24.46
2022-12-15T00:53:18.924Z,24.29
2022-12-15T00:53:50.331Z,24.32
2022-12-15T00:54:21.759Z,24.40
2022-12-15T00:54:53.196Z,24.28
2022-12-15T00:55:24.648Z,24.18
2022-12-15T00:55:56.085Z,24.29
2022-12-15T00:56:27.548Z,24.43
2022-12-15T00:56:59.033Z,24.31
2022-12-15T00:57:30.566Z,24.33
2022-12-15T00:58:01.998Z,24.26
2022-12-15T00:58:33.429Z,24.39
2022-12-15T00:59:04.851Z,24.14
2022-12-15T00:59:36.276Z,24.44
2022-12-15T01:00:07.737Z,24.40
2022-12-15T01:00:39.166Z,24.27
2022-12-15T01:01:10.607Z,24.45
2022-12-15T01:01:42.094Z,24.23
2022-12-15T01:02:13.841Z,24.48
2022-12-15T01:02:45.431Z,24.38
2022-12-15T01:03:17.127Z,24.32
2022-12-15T01:03:48.776Z,24.38
2022-12-15T01:04:20.213Z,24.32
2022-12-15T01:04:51.634Z,24.41
2022-12-15T01:05:23.126Z,24.31
2022-12-15T01:05:54.522Z,24.16
2022-12-15T01:06:25.994Z,24.40
2022-12-15T01:06:57.405Z,24.31
2022-12-15T01:07:32.079Z,24.43
2022-12-15T01:08:03.490Z,24.41
2022-12-15T01:08:34.884Z,24.43
2022-12-15T01:09:06.326Z,24.42
2022-12-15T01:09:37.745Z,24.23
2022-12-15T01:10:09.159Z,24.30
2022-12-15T01:10:40.584Z,24.31
2022-12-15T01:11:14.743Z,24.27
2022-12-15T01:11:46.147Z,24.40
2022-12-15T01:12:17.586Z,24.34
2022-12-15T01:12:49.155Z,24.22
2022-12-15T01:13:20.636Z,24.36
2022-12-15T01:13:52.090Z,24.36
2022-12-15T01:14:24.810Z,24.39
2022-12-15T01:14:56.218Z,24.36
2022-12-15T01:15:27.706Z,24.19
2022-12-15T01:15:59.191Z,24.25
2022-12-15T01:16:30.783Z,24.37
2022-12-15T01:17:02.251Z,24.31
2022-12-15T01:17:33.634Z,24.44
2022-12-15T01:18:05.105Z,24.31
2022-12-15T01:18:36.575Z,24.40
2022-12-15T01:19:08.023Z,24.41
2022-12-15T01:19:42.262Z,24.33
2022-12-15T01:20:13.980Z,24.33
2022-12-15T01:20:45.422Z,24.42
2022-12-15T01:21:16.835Z,24.28
2022-12-15T01:21:48.331Z,24.36
2022-12-15T01:22:19.773Z,24.35
2022-12-15T01:22:51.228Z,24.34
2022-12-15T01:23:25.257Z,24.27
2022-12-15T01:23:56.678Z,24.44
2022-12-15T01:24:28.086Z,24.25
2022-12-15T01:24:59.498Z,24.42
2022-12-15T01:25:30.910Z,24.33
2022-12-15T01:26:02.346Z,24.29
2022-12-15T01:26:33.743Z,24.33
2022-12-15T01:27:05.194Z,24.33
2022-12-15T01:27:36.822Z,24.35
2022-12-15T01:28:08.363Z,24.22
2022-12-15T01:28:39.847Z,24.19
2022-12-15T01:29:11.372Z,24.21
2022-12-15T01:29:45.737Z,24.50
2022-12-15T01:30:17.203Z,24.38
2022-12-15T01:30:48.687Z,24.40
2022-12-15T01:31:20.143Z,24.18
2022-12-15T01:31:51.680Z,24.23
2022-12-15T01:32:23.154Z,24.44
2022-12-15T01:32:54.638Z,24.34
2022-12-15T01:33:26.067Z,24.41
2022-12-15T01:33:57.532Z,24.34
2022-12-15T01:34:28.959Z,24.33
2022-12-15T01:35:00.431Z,24.31
2022-12-15T01:35:31.787Z,24.35
2022-12-15T01:36:03.329Z,24.30
2022-12-15T01:36:34.757Z,24.39
2022-12-15T01:37:06.178Z,24.44
2022-12-15T01:37:37.607Z,24.32
2022-12-15T01:38:09.081Z,24.08
2022-12-15T01:38:40.513Z,24.18
2022-12-15T01:39:12.048Z,24.37
2022-12-15T01:39:43.459Z,24.21
2022-12-15T01:40:17.791Z,24.24
2022-12-15T01:40:49.313Z,24.35
2022-12-15T01:41:20.712Z,24.27
2022-12-15T01:41:52.197Z,24.29
2022-12-15T01:42:23.607Z,24.32
2022-12-15T01:42:55.020Z,24.13
2022-12-15T01:43:26.473Z,24.27
2022-12-15T01:43:57.977Z,24.37
2022-12-15T01:44:29.481Z,24.36
2022-12-15T01:45:00.906Z,24.22
2022-12-15T01:45:35.453Z,24.26
2022-12-15T01:46:06.848Z,24.25
2022-12-15T01:46:38.363Z,24.24
2022-12-15T01:47:09.878Z,24.21
2022-12-15T01:47:41.370Z,24.22
2022-12-15T01:48:12.778Z,24.25
2022-12-15T01:48:44.449Z,24.24
2022-12-15T01:49:15.868Z,24.39
2022-12-15T01:49:47.340Z,24.31
2022-12-15T01:50:20.694Z,24.31
2022-12-15T01:50:52.108Z,24.38
2022-12-15T01:51:23.650Z,24.26
2022-12-15T01:51:55.047Z,24.32
2022-12-15T01:52:26.465Z,24.15
2022-12-15T01:53:00.495Z,24.35
2022-12-15T01:53:32.271Z,24.23
2022-12-15T01:54:04.005Z,24.31
2022-12-15T01:54:35.474Z,24.34
2022-12-15T01:55:06.984Z,24.24
2022-12-15T01:55:38.378Z,24.39
2022-12-15T01:56:09.837Z,24.34
2022-12-15T01:56:41.364Z,24.28
2022-12-15T01:57:12.791Z,24.30
2022-12-15T01:57:44.308Z,24.38
2022-12-15T01:58:15.736Z,24.11
2022-12-15T01:58:47.219Z,24.37
2022-12-15T01:59:18.642Z,24.35
2022-12-15T01:59:50.105Z,24.27
2022-12-15T02:00:21.547Z,24.36
2022-12-15T02:00:53.053Z,24.16
2022-12-15T02:01:24.659Z,24.33
2022-12-15T02:01:56.325Z,24.24
2022-12-15T02:02:27.985Z,24.35
2022-12-15T02:02:59.649Z,24.24
2022-12-15T02:03:31.889Z,24.08
2022-12-15T02:04:03.814Z,24.27
2022-12-15T02:04:35.200Z,24.23
2022-12-15T02:05:06.633Z,24.22
2022-12-15T02:05:38.126Z,24.28
2022-12-15T02:06:09.697Z,24.31
2022-12-15T02:06:41.102Z,24.17
2022-12-15T02:07:12.508Z,24.31
2022-12-15T02:07:43.940Z,24.24
2022-12-15T02:08:15.376Z,24.17
2022-12-15T02:08:46.818Z,24.27
2022-12-15T02:09:18.268Z,24.32
2022-12-15T02:09:49.718Z,24.15
2022-12-15T02:10:21.117Z,24.24
2022-12-15T02:10:52.603Z,24.16
2022-12-15T02:11:24.132Z,24.24
2022-12-15T02:11:55.734Z,24.23
2022-12-15T02:12:27.141Z,24.17
2022-12-15T02:12:58.547Z,24.25
2022-12-15T02:13:30.404Z,24.22
2022-12-15T02:14:02.231Z,24.31
2022-12-15T02:14:33.724Z,24.14
2022-12-15T02:15:05.145Z,24.15
2022-12-15T02:15:36.545Z,24.28
2022-12-15T02:16:08.149Z,24.22
2022-12-15T02:16:39.763Z,24.15
2022-12-15T02:17:11.220Z,24.31
2022-12-15T02:17:42.631Z,24.23
2022-12-15T02:18:14.111Z,24.23
2022-12-15T02:18:45.486Z,24.16
2022-12-15T02:19:16.935Z,24.15
2022-12-15T02:19:48.375Z,24.23
2022-12-15T02:20:20.962Z,24.19
2022-12-15T02:20:52.410Z,24.22
2022-12-15T02:21:24.006Z,24.26
2022-12-15T02:21:55.443Z,24.32
2022-12-15T02:22:26.875Z,24.35
2022-12-15T02:22:58.322Z,24.19
2022-12-15T02:23:29.997Z,24.28
2022-12-15T02:24:01.772Z,24.25
2022-12-15T02:24:33.239Z,24.15
2022-12-15T02:25:04.714Z,24.21
2022-12-15T02:25:36.175Z,24.13
2022-12-15T02:26:07.579Z,24.16
2022-12-15T02:26:39.046Z,24.17
2022-12-15T02:27:10.496Z,24.32
2022-12-15T02:27:41.905Z,24.10
2022-12-15T02:28:13.360Z,24.33
2022-12-15T02:28:44.777Z,24.12
2022-12-15T02:29:16.262Z,24.17
2022-12-15T02:29:47.754Z,24.07
2022-12-15T02:30:19.200Z,24.23
2022-12-15T02:30:50.589Z,24.18
2022-12-15T02:31:25.064Z,24.11
2022-12-15T02:31:56.640Z,24.31
2022-12-15T02:32:28.177Z,24.30
2022-12-15T02:32:59.649Z,24.07
2022-12-15T02:33:31.633Z,24.21
2022-12-15T02:34:03.319Z,24.14
2022-12-15T02:34:34.761Z,24.31
2022-12-15T02:35:06.200Z,24.20
2022-12-15T02:35:37.600Z,24.12
2022-12-15T02:36:09.010Z,24.24
2022-12-15T02:36:40.455Z,24.13
2022-12-15T02:37:11.984Z,24.28
2022-12-15T02:37:43.517Z,24.31
2022-12-15T02:38:14.970Z,24.29
2022-12-15T02:38:46.556Z,24.19
2022-12-15T02:39:17.990Z,24.31
2022-12-15T02:39:52.450Z,24.24
2022-12-15T02:40:23.911Z,24.26
2022-12-15T02:40:55.381Z,24.22
2022-12-15T02:41:26.750Z,24.19
2022-12-15T02:41:58.157Z,24.15
2022-12-15T02:42:29.646Z,24.06
2022-12-15T02:43:01.033Z,24.23
2022-12-15T02:43:32.751Z,24.27
2022-12-15T02:44:04.448Z,24.09
2022-12-15T02:44:35.880Z,24.25
2022-12-15T02:45:07.333Z,24.35
2022-12-15T02:45:38.827Z,24.12
2022-12-15T02:46:10.341Z,24.19
2022-12-15T02:46:41.862Z,24.23
2022-12-15T02:47:13.328Z,24.15
2022-12-15T02:47:44.842Z,24.35
2022-12-15T02:48:16.238Z,24.15
2022-12-15T02:48:48.084Z,24.14
2022-12-15T02:49:19.542Z,24.23
2022-12-15T02:49:50.966Z,24.21
2022-12-15T02:50:22.452Z,24.27
2022-12-15T02:50:53.875Z,24.25
2022-12-15T02:51:25.268Z,24.06
2022-12-15T02:51:56.693Z,24.17
2022-12-15T02:52:28.122Z,24.22
2022-12-15T02:52:59.659Z,24.02
2022-12-15T02:53:31.535Z,24.16
2022-12-15T02:54:03.165Z,24.23
2022-12-15T02:54:34.565Z,24.16
2022-12-15T02:55:06.081Z,24.27
2022-12-15T02:55:37.498Z,24.22
2022-12-15T02:56:09.003Z,24.10
2022-12-15T02:56:40.463Z,24.11
2022-12-15T02:57:11.877Z,24.15
2022-12-15T02:57:43.328Z,24.17
2022-12-15T02:58:15.016Z,24.06
2022-12-15T02:58:46.401Z,24.07
2022-12-15T02:59:17.856Z,24.15
2022-12-15T02:59:49.270Z,24.27
2022-12-15T03:00:20.744Z,24.17
2022-12-15T03:00:52.266Z,24.06
2022-12-15T03:01:23.845Z,24.23
2022-12-15T03:01:55.517Z,24.13
2022-12-15T03:02:27.243Z,23.93
2022-12-15T03:02:58.955Z,23.97
2022-12-15T03:03:31.025Z,23.96
2022-12-15T03:04:02.830Z,24.01
2022-12-15T03:04:34.245Z,24.14
2022-12-15T03:05:05.677Z,23.98
2022-12-15T03:05:37.075Z,24.17
2022-12-15T03:06:08.492Z,24.21
2022-12-15T03:06:39.943Z,24.19
2022-12-15T03:07:11.347Z,24.06
2022-12-15T03:07:42.845Z,24.29
2022-12-15T03:08:17.061Z,24.14
2022-12-15T03:08:48.560Z,24.18
2022-12-15T03:09:20.006Z,24.19
2022-12-15T03:09:51.419Z,24.10
2022-12-15T03:10:22.839Z,24.21
2022-12-15T03:10:54.325Z,24.01
2022-12-15T03:11:25.737Z,24.16
2022-12-15T03:11:57.138Z,23.98
2022-12-15T03:12:28.810Z,24.19
2022-12-15T03:13:00.247Z,24.25
2022-12-15T03:13:31.981Z,24.32
2022-12-15T03:14:03.810Z,24.16
2022-12-15T03:14:35.208Z,24.08
2022-12-15T03:15:06.694Z,24.19
2022-12-15T03:15:38.129Z,24.20
2022-12-15T03:16:09.640Z,24.11
2022-12-15T03:16:41.253Z,24.23
2022-12-15T03:17:12.756Z,24.16
2022-12-15T03:17:44.211Z,24.11
2022-12-15T03:18:15.738Z,24.21
2022-12-15T03:18:47.196Z,24.06
2022-12-15T03:19:18.772Z,24.10
2022-12-15T03:19:50.220Z,24.15
2022-12-15T03:20:21.660Z,24.21
2022-12-15T03:20:53.155Z,24.10
2022-12-15T03:21:24.607Z,24.24
2022-12-15T03:21:56.046Z,24.13
2022-12-15T03:22:27.475Z,24.22
2022-12-15T03:22:58.897Z,24.22
2022-12-15T03:23:30.683Z,24.13
2022-12-15T03:24:02.321Z,24.16
2022-12-15T03:24:33.809Z,24.01
2022-12-15T03:25:05.258Z,24.23
2022-12-15T03:25:36.697Z,24.20
2022-12-15T03:26:08.104Z,24.08
2022-12-15T03:26:39.542Z,24.30
2022-12-15T03:27:14.085Z,24.33
2022-12-15T03:27:45.618Z,24.02
2022-12-15T03:28:17.064Z,24.16
2022-12-15T03:28:48.482Z,24.17
2022-12-15T03:29:19.910Z,24.28
2022-12-15T03:29:51.499Z,24.15
2022-12-15T03:30:23.130Z,24.07
2022-12-15T03:30:54.603Z,24.24
2022-12-15T03:31:26.045Z,24.10
2022-12-15T03:31:57.568Z,24.19
2022-12-15T03:33:00.534Z,24.18
2022-12-15T03:33:32.286Z,24.17
2022-12-15T03:34:04.056Z,24.15
2022-12-15T03:34:35.491Z,24.23
2022-12-15T03:35:06.900Z,24.17
2022-12-15T03:35:38.506Z,24.09
2022-12-15T03:36:09.913Z,24.15
2022-12-15T03:36:41.342Z,24.13
2022-12-15T03:37:12.777Z,24.14
2022-12-15T03:38:15.594Z,24.14
2022-12-15T03:38:47.099Z,24.17
2022-12-15T03:39:18.531Z,24.20
2022-12-15T03:39:49.997Z,24.17
2022-12-15T03:40:21.452Z,24.18
2022-12-15T03:40:53.009Z,24.13
2022-12-15T03:41:24.407Z,24.03
2022-12-15T03:41:55.910Z,24.28
2022-12-15T03:42:27.342Z,24.10
2022-12-15T03:42:58.776Z,24.25
2022-12-15T03:43:30.575Z,24.14
2022-12-15T03:44:02.347Z,24.15
2022-12-15T03:44:33.832Z,24.25
2022-12-15T03:45:05.328Z,24.30
2022-12-15T03:46:08.463Z,24.12
2022-12-15T03:46:39.947Z,24.09
2022-12-15T03:47:11.419Z,24.15
2022-12-15T03:47:42.880Z,24.10
2022-12-15T03:48:14.379Z,24.21
2022-12-15T03:48:45.829Z,24.23
2022-12-15T03:49:17.254Z,24.24
2022-12-15T03:49:48.685Z,24.15
2022-12-15T03:50:20.206Z,24.17
2022-12-15T03:50:51.970Z,24.09
2022-12-15T03:51:26.440Z,24.19
2022-12-15T03:51:57.845Z,24.14
2022-12-15T03:52:29.262Z,24.11
2022-12-15T03:53:00.709Z,24.15
2022-12-15T03:53:32.464Z,24.07
2022-12-15T03:54:04.125Z,24.13
2022-12-15T03:55:07.075Z,24.04
2022-12-15T03:55:38.467Z,24.10
2022-12-15T03:56:09.973Z,24.24
2022-12-15T03:56:41.384Z,24.16
2022-12-15T03:57:12.811Z,24.08
2022-12-15T03:57:44.259Z,24.10
2022-12-15T03:58:15.709Z,24.22
2022-12-15T03:58:47.176Z,24.13
2022-12-15T03:59:18.611Z,24.12
2022-12-15T03:59:50.107Z,24.13
2022-12-15T04:00:21.518Z,24.16
2022-12-15T04:00:53.195Z,24.17
2022-12-15T04:01:24.868Z,24.17
2022-12-15T04:01:56.420Z,24.02
2022-12-15T04:02:28.057Z,24.17
2022-12-15T04:02:59.755Z,24.12
2022-12-15T04:03:32.003Z,24.13
2022-12-15T04:04:03.759Z,24.10
2022-12-15T04:04:35.272Z,24.16
2022-12-15T04:05:06.692Z,24.09
2022-12-15T04:05:38.146Z,24.16
2022-12-15T04:06:09.710Z,24.09
2022-12-15T04:06:41.135Z,24.24
2022-12-15T04:07:12.615Z,24.11
2022-12-15T04:08:15.564Z,24.01
2022-12-15T04:09:18.462Z,24.09
2022-12-15T04:09:49.913Z,24.24
2022-12-15T04:10:21.344Z,24.18
2022-12-15T04:10:52.788Z,24.10
2022-12-15T04:11:24.234Z,24.33
2022-12-15T04:11:55.677Z,24.19
2022-12-15T04:12:27.099Z,24.29
2022-12-15T04:12:58.473Z,24.16
2022-12-15T04:13:30.277Z,24.17
2022-12-15T04:14:01.873Z,24.17
2022-12-15T04:14:33.285Z,24.15
2022-12-15T04:15:04.756Z,24.10
2022-12-15T04:15:36.102Z,24.13
2022-12-15T04:16:07.520Z,23.99
2022-12-15T04:16:39.010Z,24.09
2022-12-15T04:17:10.552Z,24.15
2022-12-15T04:17:42.258Z,24.06
2022-12-15T04:18:13.707Z,24.14
2022-12-15T04:18:45.428Z,24.06
2022-12-15T04:19:16.857Z,23.94
2022-12-15T04:19:48.258Z,24.00
2022-12-15T04:20:19.659Z,24.17
2022-12-15T04:20:51.163Z,24.17
2022-12-15T04:21:23.954Z,24.25
2022-12-15T04:21:55.464Z,24.06
2022-12-15T04:22:26.879Z,23.92
2022-12-15T04:22:58.340Z,23.94
2022-12-15T04:23:30.062Z,24.26
2022-12-15T04:24:01.888Z,24.20
2022-12-15T04:24:33.393Z,24.07
2022-12-15T04:25:04.852Z,24.10
2022-12-15T04:25:36.331Z,24.07
2022-12-15T04:26:07.810Z,24.09
2022-12-15T04:26:39.229Z,24.11
2022-12-15T04:27:10.718Z,24.12
2022-12-15T04:27:42.183Z,24.07
2022-12-15T04:28:13.900Z,24.08
2022-12-15T04:28:45.377Z,24.03
2022-12-15T04:29:16.995Z,24.00
2022-12-15T04:29:48.570Z,24.01
2022-12-15T04:30:19.987Z,23.98
2022-12-15T04:30:51.424Z,24.20
2022-12-15T04:31:23.008Z,24.10
2022-12-15T04:31:54.469Z,24.02
2022-12-15T04:32:25.958Z,24.08
2022-12-15T04:32:57.374Z,23.97
2022-12-15T04:33:32.324Z,24.14
2022-12-15T04:34:04.131Z,24.05
2022-12-15T04:34:35.572Z,24.09
2022-12-15T04:35:38.439Z,24.23
2022-12-15T04:36:09.925Z,24.06
2022-12-15T04:36:41.326Z,24.10
2022-12-15T04:37:12.779Z,24.05
2022-12-15T04:37:44.273Z,24.17
2022-12-15T04:38:15.696Z,23.93
2022-12-15T04:38:50.466Z,24.00
2022-12-15T04:39:22.314Z,24.12
2022-12-15T04:39:53.786Z,23.96
2022-12-15T04:40:25.401Z,24.08
2022-12-15T04:40:56.828Z,24.16
2022-12-15T04:41:28.266Z,24.07
2022-12-15T04:41:59.664Z,24.08
2022-12-15T04:42:31.128Z,24.08
2022-12-15T04:43:02.591Z,24.00
2022-12-15T04:43:34.238Z,23.94
2022-12-15T04:44:05.905Z,24.06
2022-12-15T04:44:37.320Z,24.02
2022-12-15T04:45:08.872Z,24.17
2022-12-15T04:45:40.335Z,24.15
2022-12-15T04:46:11.844Z,24.08
2022-12-15T04:46:43.375Z,24.06
2022-12-15T04:47:14.886Z,24.08
2022-12-15T04:47:46.291Z,24.12
2022-12-15T04:48:17.738Z,24.21
2022-12-15T04:48:49.225Z,23.99
2022-12-15T04:49:20.704Z,24.25
2022-12-15T04:49:52.092Z,24.02
2022-12-15T04:50:26.482Z,24.18
2022-12-15T04:50:58.077Z,24.14
2022-12-15T04:51:29.486Z,24.01
2022-12-15T04:52:00.942Z,24.01
2022-12-15T04:52:32.416Z,24.13
2022-12-15T04:53:03.831Z,24.13
2022-12-15T04:53:35.326Z,23.99
2022-12-15T04:54:06.776Z,24.08
2022-12-15T04:54:38.222Z,23.94
2022-12-15T04:55:09.592Z,24.10
2022-12-15T04:55:41.178Z,24.09
2022-12-15T04:56:17.984Z,24.19
2022-12-15T04:56:49.845Z,23.92
2022-12-15T04:57:21.597Z,24.10
2022-12-15T04:57:52.976Z,24.16
2022-12-15T04:58:24.442Z,24.13
2022-12-15T04:58:55.830Z,24.12
2022-12-15T04:59:27.250Z,23.93
2022-12-15T04:59:58.645Z,24.11
2022-12-15T05:00:30.070Z,24.01
2022-12-15T05:01:01.667Z,24.07
2022-12-15T05:01:33.264Z,24.03
2022-12-15T05:02:04.950Z,24.11
2022-12-15T05:02:36.813Z,24.07
2022-12-15T05:03:11.256Z,24.14
2022-12-15T05:03:45.049Z,23.97
2022-12-15T05:04:16.505Z,24.04
2022-12-15T05:04:48.085Z,23.98
2022-12-15T05:05:19.583Z,24.16
2022-12-15T05:05:50.987Z,24.10
2022-12-15T05:06:53.850Z,24.00
2022-12-15T05:07:25.292Z,24.04
2022-12-15T05:07:56.726Z,23.94
2022-12-15T05:08:28.178Z,24.10
2022-12-15T05:08:59.584Z,23.94
2022-12-15T05:09:31.132Z,24.19
2022-12-15T05:10:03.378Z,23.99
2022-12-15T05:10:35.318Z,23.94
2022-12-15T05:11:06.750Z,24.24
2022-12-15T05:11:38.246Z,24.02
2022-12-15T05:12:09.704Z,24.02
2022-12-15T05:13:12.530Z,24.01
2022-12-15T05:13:43.942Z,24.07
2022-12-15T05:14:15.366Z,24.21
2022-12-15T05:14:49.579Z,24.16
2022-12-15T05:15:21.195Z,24.12
2022-12-15T05:15:52.698Z,24.18
2022-12-15T05:16:24.295Z,24.04
2022-12-15T05:16:55.961Z,23.97
2022-12-15T05:17:30.358Z,24.10
2022-12-15T05:18:01.821Z,23.96
2022-12-15T05:18:33.266Z,23.91
2022-12-15T05:19:04.802Z,24.12
2022-12-15T05:19:36.215Z,24.02
2022-12-15T05:20:39.173Z,24.01
2022-12-15T05:21:13.824Z,23.91
2022-12-15T05:21:45.246Z,24.04
2022-12-15T05:22:16.827Z,23.99
2022-12-15T05:22:48.226Z,23.98
2022-12-15T05:23:51.088Z,24.15
2022-12-15T05:24:22.496Z,24.13
2022-12-15T05:24:56.781Z,23.99
2022-12-15T05:25:28.187Z,23.98
2022-12-15T05:25:59.657Z,23.98
2022-12-15T05:26:31.127Z,23.86
2022-12-15T05:27:02.506Z,24.07
2022-12-15T05:28:05.522Z,24.17
2022-12-15T05:28:36.940Z,24.17
2022-12-15T05:29:39.781Z,24.02
2022-12-15T05:30:11.266Z,23.90
2022-12-15T05:30:42.793Z,23.94
2022-12-15T05:31:45.768Z,24.01
2022-12-15T05:32:17.203Z,23.95
2022-12-15T05:32:49.907Z,24.04
2022-12-15T05:33:21.697Z,24.13
2022-12-15T05:33:53.142Z,23.90
2022-12-15T05:34:24.538Z,24.09
2022-12-15T05:34:55.967Z,24.07
2022-12-15T05:35:27.390Z,24.12
2022-12-15T05:35:58.819Z,23.98
2022-12-15T05:36:30.221Z,23.99
2022-12-15T05:37:01.671Z,24.02
2022-12-15T05:37:33.095Z,24.06
2022-12-15T05:38:04.681Z,24.10
2022-12-15T05:38:36.300Z,24.08
2022-12-15T05:39:07.760Z,24.13
2022-12-15T05:39:39.201Z,23.96
2022-12-15T05:40:10.652Z,24.02
2022-12-15T05:40:42.113Z,23.94
2022-12-15T05:41:13.545Z,24.05
2022-12-15T05:41:45.063Z,23.95
2022-12-15T05:42:16.449Z,24.01
2022-12-15T05:42:50.201Z,24.12
2022-12-15T05:43:26.342Z,23.95
2022-12-15T05:43:58.209Z,24.13
2022-12-15T05:44:29.632Z,24.14
2022-12-15T05:45:01.243Z,24.14
2022-12-15T05:45:32.653Z,24.19
2022-12-15T05:46:04.179Z,24.11
2022-12-15T05:46:35.734Z,24.08
2022-12-15T05:47:08.972Z,24.13
2022-12-15T05:47:40.408Z,23.92
2022-12-15T05:48:11.814Z,24.10
2022-12-15T05:48:43.287Z,24.02
2022-12-15T05:49:14.730Z,24.05
2022-12-15T05:49:46.222Z,24.18
2022-12-15T05:50:17.650Z,23.96
2022-12-15T05:50:49.058Z,24.11
2022-12-15T05:51:21.190Z,24.09
2022-12-15T05:51:52.577Z,24.05
2022-12-15T05:52:24.024Z,24.13
2022-12-15T05:52:55.427Z,24.09
2022-12-15T05:53:26.906Z,23.93
2022-12-15T05:53:58.408Z,24.12
2022-12-15T05:54:29.839Z,23.88
2022-12-15T05:55:01.430Z,24.18
2022-12-15T05:55:32.825Z,24.06
2022-12-15T05:56:04.249Z,24.04
2022-12-15T05:56:35.765Z,24.09
2022-12-15T05:57:07.144Z,24.11
2022-12-15T05:57:38.578Z,24.21
2022-12-15T05:58:09.980Z,24.06
2022-12-15T05:58:45.077Z,24.01
2022-12-15T05:59:17.217Z,24.05
2022-12-15T05:59:48.694Z,24.09
2022-12-15T06:00:20.117Z,23.91
2022-12-15T06:00:51.524Z,24.07
2022-12-15T06:01:23.001Z,24.14
2022-12-15T06:02:26.097Z,23.92
2022-12-15T06:02:57.792Z,24.04
2022-12-15T06:03:29.478Z,23.90
2022-12-15T06:04:01.300Z,23.90
2022-12-15T06:04:32.820Z,23.92
2022-12-15T06:05:04.458Z,24.12
2022-12-15T06:05:36.042Z,24.05
2022-12-15T06:06:07.524Z,23.99
2022-12-15T06:06:38.933Z,24.04
2022-12-15T06:07:10.420Z,23.98
2022-12-15T06:07:41.960Z,24.03
2022-12-15T06:08:13.445Z,23.99
2022-12-15T06:08:44.863Z,23.88
2022-12-15T06:09:16.373Z,23.99
2022-12-15T06:09:47.853Z,24.06
2022-12-15T06:10:19.267Z,24.09
2022-12-15T06:10:50.718Z,24.05
2022-12-15T06:11:22.119Z,24.03
2022-12-15T06:11:53.549Z,24.11
2022-12-15T06:12:24.974Z,23.94
2022-12-15T06:12:56.384Z,24.14
2022-12-15T06:13:27.914Z,24.04
2022-12-15T06:13:59.432Z,24.04
2022-12-15T06:14:30.859Z,23.89
2022-12-15T06:15:02.335Z,23.97
2022-12-15T06:15:34.001Z,24.02
2022-12-15T06:16:05.419Z,24.03
2022-12-15T06:16:42.550Z,24.04
2022-12-15T06:17:15.825Z,24.05
2022-12-15T06:17:49.719Z,24.21
2022-12-15T06:18:21.329Z,24.14
2022-12-15T06:18:52.743Z,23.92
2022-12-15T06:19:25.469Z,24.09
2022-12-15T06:19:56.919Z,24.02
2022-12-15T06:20:28.486Z,24.08
2022-12-15T06:20:59.908Z,24.04
2022-12-15T06:21:31.352Z,24.07
2022-12-15T06:22:02.840Z,24.06
2022-12-15T06:22:34.563Z,23.98
2022-12-15T06:23:06.016Z,24.10
2022-12-15T06:23:37.512Z,24.02
2022-12-15T06:24:08.926Z,23.92
2022-12-15T06:24:40.389Z,24.08
2022-12-15T06:25:11.762Z,24.04
2022-12-15T06:25:43.341Z,24.05
2022-12-15T06:26:14.809Z,24.11
2022-12-15T06:26:46.338Z,24.08
2022-12-15T06:27:21.206Z,24.26
2022-12-15T06:27:55.800Z,24.15
2022-12-15T06:28:29.921Z,24.03
2022-12-15T06:29:01.464Z,24.27
2022-12-15T06:29:32.880Z,24.12
2022-12-15T06:30:04.296Z,24.21
2022-12-15T06:30:35.762Z,24.17
2022-12-15T06:31:07.306Z,24.36
2022-12-15T06:31:39.002Z,24.19
2022-12-15T06:32:10.550Z,24.37
2022-12-15T06:32:42.034Z,24.28
2022-12-15T06:33:13.431Z,24.35
2022-12-15T06:33:46.913Z,24.33
2022-12-15T06:34:18.358Z,24.17
2022-12-15T06:34:49.871Z,24.27
2022-12-15T06:35:21.335Z,24.20
2022-12-15T06:35:52.763Z,24.35
2022-12-15T06:36:24.246Z,24.17
2022-12-15T06:36:55.812Z,24.14
2022-12-15T06:37:27.295Z,24.32
2022-12-15T06:37:58.713Z,24.17
2022-12-15T06:38:30.366Z,24.41
2022-12-15T06:39:01.797Z,24.31
2022-12-15T06:39:33.323Z,24.38
2022-12-15T06:40:04.796Z,24.18
2022-12-15T06:40:38.226Z,24.22
2022-12-15T06:41:09.823Z,24.24
2022-12-15T06:41:41.280Z,24.33
2022-12-15T06:42:12.808Z,24.15
2022-12-15T06:42:44.298Z,24.40
2022-12-15T06:43:15.764Z,24.36
2022-12-15T06:43:47.270Z,24.36
2022-12-15T06:44:18.687Z,24.12
2022-12-15T06:44:50.150Z,24.37
2022-12-15T06:45:21.737Z,24.26
2022-12-15T06:45:53.152Z,24.18
2022-12-15T06:46:25.808Z,24.34
2022-12-15T06:46:57.339Z,24.40
2022-12-15T06:47:28.823Z,24.32
2022-12-15T06:48:01.698Z,24.21
2022-12-15T06:48:33.473Z,24.07
2022-12-15T06:49:05.082Z,24.39
2022-12-15T06:49:36.554Z,24.33
2022-12-15T06:50:08.038Z,24.22
2022-12-15T06:50:39.490Z,24.33
2022-12-15T06:51:16.558Z,24.31
2022-12-15T06:51:48.752Z,24.30
2022-12-15T06:52:20.125Z,24.39
2022-12-15T06:52:51.578Z,24.37
2022-12-15T06:53:22.971Z,24.37
2022-12-15T06:53:54.546Z,24.35
2022-12-15T06:54:25.977Z,24.44
2022-12-15T06:54:57.389Z,24.30
2022-12-15T06:55:28.877Z,24.22